sensor_id;sensor_type;location;lat;lon;timestamp;temperature;humidity
80495;DHT22;69819;48.798;11.770;2023-07-28T00:00:09;21.20;54.40
80495;DHT22;69819;48.798;11.770;2023-07-28T00:02:35;21.30;54.50
80495;DHT22;69819;48.798;11.770;2023-07-28T00:05:01;21.20;54.40
80495;DHT22;69819;48.798;11.770;2023-07-28T00:07:27;21.20;54.40
80495;DHT22;69819;48.798;11.770;2023-07-28T00:09:53;21.20;54.40
80495;DHT22;69819;48.798;11.770;2023-07-28T00:12:19;21.30;54.50
80495;DHT22;69819;48.798;11.770;2023-07-28T00:14:45;21.30;54.50
80495;DHT22;69819;48.798;11.770;2023-07-28T00:17:11;21.30;54.50
80495;DHT22;69819;48.798;11.770;2023-07-28T00:19:37;21.20;54.50
80495;DHT22;69819;48.798;11.770;2023-07-28T00:22:03;21.20;54.50
80495;DHT22;69819;48.798;11.770;2023-07-28T00:24:29;21.30;54.70
80495;DHT22;69819;48.798;11.770;2023-07-28T00:26:54;21.20;54.50
80495;DHT22;69819;48.798;11.770;2023-07-28T00:29:20;21.20;54.60
80495;DHT22;69819;48.798;11.770;2023-07-28T00:31:46;21.20;54.50
80495;DHT22;69819;48.798;11.770;2023-07-28T00:34:12;21.20;54.50
80495;DHT22;69819;48.798;11.770;2023-07-28T00:36:38;21.20;54.60
80495;DHT22;69819;48.798;11.770;2023-07-28T00:39:03;21.20;54.70
80495;DHT22;69819;48.798;11.770;2023-07-28T00:41:29;21.20;54.80
80495;DHT22;69819;48.798;11.770;2023-07-28T00:43:55;21.20;54.90
80495;DHT22;69819;48.798;11.770;2023-07-28T00:46:21;21.20;54.90
80495;DHT22;69819;48.798;11.770;2023-07-28T00:48:47;21.20;54.90
80495;DHT22;69819;48.798;11.770;2023-07-28T00:51:13;21.20;54.90
80495;DHT22;69819;48.798;11.770;2023-07-28T00:53:39;21.20;54.90
80495;DHT22;69819;48.798;11.770;2023-07-28T00:56:06;21.20;54.90
80495;DHT22;69819;48.798;11.770;2023-07-28T00:58:33;21.10;54.80
80495;DHT22;69819;48.798;11.770;2023-07-28T01:00:59;21.10;54.80
80495;DHT22;69819;48.798;11.770;2023-07-28T01:03:26;21.10;54.80
80495;DHT22;69819;48.798;11.770;2023-07-28T01:06:27;21.10;54.90
80495;DHT22;69819;48.798;11.770;2023-07-28T01:09:03;21.10;55.60
80495;DHT22;69819;48.798;11.770;2023-07-28T01:11:35;21.00;54.90
80495;DHT22;69819;48.798;11.770;2023-07-28T01:14:01;21.00;55.30
80495;DHT22;69819;48.798;11.770;2023-07-28T01:16:27;21.00;54.90
80495;DHT22;69819;48.798;11.770;2023-07-28T01:18:53;20.90;55.00
80495;DHT22;69819;48.798;11.770;2023-07-28T01:21:26;20.90;55.00
80495;DHT22;69819;48.798;11.770;2023-07-28T01:23:59;20.90;55.40
80495;DHT22;69819;48.798;11.770;2023-07-28T01:26:36;20.80;55.10
80495;DHT22;69819;48.798;11.770;2023-07-28T01:29:04;20.80;55.20
80495;DHT22;69819;48.798;11.770;2023-07-28T01:31:31;20.80;55.20
80495;DHT22;69819;48.798;11.770;2023-07-28T01:33:57;20.80;55.30
80495;DHT22;69819;48.798;11.770;2023-07-28T01:36:23;20.80;55.30
80495;DHT22;69819;48.798;11.770;2023-07-28T01:38:49;20.70;55.20
80495;DHT22;69819;48.798;11.770;2023-07-28T01:41:15;20.80;55.40
80495;DHT22;69819;48.798;11.770;2023-07-28T01:43:41;20.70;55.40
80495;DHT22;69819;48.798;11.770;2023-07-28T01:46:10;20.70;55.50
80495;DHT22;69819;48.798;11.770;2023-07-28T01:48:35;20.70;55.50
80495;DHT22;69819;48.798;11.770;2023-07-28T01:51:01;20.70;55.50
80495;DHT22;69819;48.798;11.770;2023-07-28T01:53:27;20.60;55.50
80495;DHT22;69819;48.798;11.770;2023-07-28T01:55:53;20.60;55.40
80495;DHT22;69819;48.798;11.770;2023-07-28T01:58:19;20.50;55.40
80495;DHT22;69819;48.798;11.770;2023-07-28T02:00:45;20.50;55.40
80495;DHT22;69819;48.798;11.770;2023-07-28T02:03:12;20.50;55.40
80495;DHT22;69819;48.798;11.770;2023-07-28T02:05:37;20.40;55.40
80495;DHT22;69819;48.798;11.770;2023-07-28T02:08:04;20.40;55.40
80495;DHT22;69819;48.798;11.770;2023-07-28T02:10:30;20.30;55.30
80495;DHT22;69819;48.798;11.770;2023-07-28T02:12:56;20.30;55.30
80495;DHT22;69819;48.798;11.770;2023-07-28T02:15:22;20.20;55.40
80495;DHT22;69819;48.798;11.770;2023-07-28T02:17:48;20.20;55.40
80495;DHT22;69819;48.798;11.770;2023-07-28T02:20:14;20.10;55.40
80495;DHT22;69819;48.798;11.770;2023-07-28T02:22:42;20.10;55.40
80495;DHT22;69819;48.798;11.770;2023-07-28T02:25:09;20.00;55.40
80495;DHT22;69819;48.798;11.770;2023-07-28T02:27:38;20.00;55.40
80495;DHT22;69819;48.798;11.770;2023-07-28T02:30:05;19.90;55.40
80495;DHT22;69819;48.798;11.770;2023-07-28T02:32:32;19.80;55.40
80495;DHT22;69819;48.798;11.770;2023-07-28T02:34:58;19.80;55.50
80495;DHT22;69819;48.798;11.770;2023-07-28T02:37:25;19.70;55.40
80495;DHT22;69819;48.798;11.770;2023-07-28T02:39:51;19.70;55.50
80495;DHT22;69819;48.798;11.770;2023-07-28T02:42:17;19.70;55.60
80495;DHT22;69819;48.798;11.770;2023-07-28T02:44:42;19.60;55.70
80495;DHT22;69819;48.798;11.770;2023-07-28T02:47:08;19.60;55.70
80495;DHT22;69819;48.798;11.770;2023-07-28T02:49:34;19.60;55.70
80495;DHT22;69819;48.798;11.770;2023-07-28T02:52:00;19.50;55.60
80495;DHT22;69819;48.798;11.770;2023-07-28T02:54:28;19.50;55.60
80495;DHT22;69819;48.798;11.770;2023-07-28T02:56:54;19.40;55.60
80495;DHT22;69819;48.798;11.770;2023-07-28T02:59:21;19.40;55.60
80495;DHT22;69819;48.798;11.770;2023-07-28T03:01:48;19.40;55.70
80495;DHT22;69819;48.798;11.770;2023-07-28T03:04:13;19.30;55.60
80495;DHT22;69819;48.798;11.770;2023-07-28T03:06:39;19.30;55.70
80495;DHT22;69819;48.798;11.770;2023-07-28T03:09:05;19.20;55.70
80495;DHT22;69819;48.798;11.770;2023-07-28T03:11:31;19.20;55.70
80495;DHT22;69819;48.798;11.770;2023-07-28T03:13:57;19.20;55.70
80495;DHT22;69819;48.798;11.770;2023-07-28T03:16:23;19.10;55.60
80495;DHT22;69819;48.798;11.770;2023-07-28T03:18:49;19.10;55.60
80495;DHT22;69819;48.798;11.770;2023-07-28T03:21:15;19.10;55.60
80495;DHT22;69819;48.798;11.770;2023-07-28T03:23:41;19.10;55.60
80495;DHT22;69819;48.798;11.770;2023-07-28T03:26:07;19.00;55.60
80495;DHT22;69819;48.798;11.770;2023-07-28T03:28:33;19.00;55.70
80495;DHT22;69819;48.798;11.770;2023-07-28T03:30:58;19.00;55.70
80495;DHT22;69819;48.798;11.770;2023-07-28T03:33:24;19.00;55.90
80495;DHT22;69819;48.798;11.770;2023-07-28T03:35:50;19.00;55.90
80495;DHT22;69819;48.798;11.770;2023-07-28T03:38:16;19.00;56.00
80495;DHT22;69819;48.798;11.770;2023-07-28T03:40:43;18.90;55.90
80495;DHT22;69819;48.798;11.770;2023-07-28T03:43:09;18.90;55.90
80495;DHT22;69819;48.798;11.770;2023-07-28T03:45:35;18.90;56.00
80495;DHT22;69819;48.798;11.770;2023-07-28T03:48:01;18.90;56.00
80495;DHT22;69819;48.798;11.770;2023-07-28T03:50:27;18.90;55.90
80495;DHT22;69819;48.798;11.770;2023-07-28T03:52:53;18.90;56.00
80495;DHT22;69819;48.798;11.770;2023-07-28T03:55:19;18.90;56.10
80495;DHT22;69819;48.798;11.770;2023-07-28T03:57:45;18.90;56.10
80495;DHT22;69819;48.798;11.770;2023-07-28T04:00:11;18.90;56.10
80495;DHT22;69819;48.798;11.770;2023-07-28T04:02:39;18.90;56.20
80495;DHT22;69819;48.798;11.770;2023-07-28T04:05:05;18.90;56.20
80495;DHT22;69819;48.798;11.770;2023-07-28T04:07:31;18.90;56.30
80495;DHT22;69819;48.798;11.770;2023-07-28T04:09:57;18.90;56.20
80495;DHT22;69819;48.798;11.770;2023-07-28T04:12:23;18.90;56.50
80495;DHT22;69819;48.798;11.770;2023-07-28T04:14:48;19.00;57.00
80495;DHT22;69819;48.798;11.770;2023-07-28T04:17:14;19.10;57.10
80495;DHT22;69819;48.798;11.770;2023-07-28T04:19:40;19.10;56.90
80495;DHT22;69819;48.798;11.770;2023-07-28T04:22:06;19.20;57.00
80495;DHT22;69819;48.798;11.770;2023-07-28T04:24:32;19.40;57.60
80495;DHT22;69819;48.798;11.770;2023-07-28T04:26:58;19.50;58.20
80495;DHT22;69819;48.798;11.770;2023-07-28T04:29:24;19.90;58.80
80495;DHT22;69819;48.798;11.770;2023-07-28T04:31:49;20.30;59.20
80495;DHT22;69819;48.798;11.770;2023-07-28T04:34:15;20.70;58.70
80495;DHT22;69819;48.798;11.770;2023-07-28T04:36:41;21.10;58.10
80495;DHT22;69819;48.798;11.770;2023-07-28T04:39:07;21.50;57.90
80495;DHT22;69819;48.798;11.770;2023-07-28T04:41:33;21.90;57.80
80495;DHT22;69819;48.798;11.770;2023-07-28T04:43:58;22.40;57.90
80495;DHT22;69819;48.798;11.770;2023-07-28T04:46:24;22.90;57.60
80495;DHT22;69819;48.798;11.770;2023-07-28T04:48:50;23.50;57.40
80495;DHT22;69819;48.798;11.770;2023-07-28T04:51:16;24.00;56.80
80495;DHT22;69819;48.798;11.770;2023-07-28T04:53:42;24.40;55.90
80495;DHT22;69819;48.798;11.770;2023-07-28T04:56:08;24.80;55.00
80495;DHT22;69819;48.798;11.770;2023-07-28T04:58:33;25.00;54.20
80495;DHT22;69819;48.798;11.770;2023-07-28T05:00:59;25.10;53.60
80495;DHT22;69819;48.798;11.770;2023-07-28T05:03:26;25.20;53.50
80495;DHT22;69819;48.798;11.770;2023-07-28T05:05:52;25.40;53.90
80495;DHT22;69819;48.798;11.770;2023-07-28T05:08:18;25.70;54.30
80495;DHT22;69819;48.798;11.770;2023-07-28T05:10:44;26.20;54.60
80495;DHT22;69819;48.798;11.770;2023-07-28T05:13:10;26.80;54.70
80495;DHT22;69819;48.798;11.770;2023-07-28T05:15:35;27.40;54.40
80495;DHT22;69819;48.798;11.770;2023-07-28T05:18:01;28.20;54.10
80495;DHT22;69819;48.798;11.770;2023-07-28T05:20:27;28.90;53.30
80495;DHT22;69819;48.798;11.770;2023-07-28T05:22:53;29.60;52.40
80495;DHT22;69819;48.798;11.770;2023-07-28T05:25:19;30.30;51.80
80495;DHT22;69819;48.798;11.770;2023-07-28T05:27:45;31.00;51.20
80495;DHT22;69819;48.798;11.770;2023-07-28T05:30:12;31.60;50.50
80495;DHT22;69819;48.798;11.770;2023-07-28T05:32:38;32.20;49.20
80495;DHT22;69819;48.798;11.770;2023-07-28T05:35:04;32.60;47.80
80495;DHT22;69819;48.798;11.770;2023-07-28T05:37:31;32.80;46.80
80495;DHT22;69819;48.798;11.770;2023-07-28T05:39:57;32.80;46.00
80495;DHT22;69819;48.798;11.770;2023-07-28T05:42:23;32.80;45.40
80495;DHT22;69819;48.798;11.770;2023-07-28T05:44:49;32.70;45.20
80495;DHT22;69819;48.798;11.770;2023-07-28T05:47:17;32.70;45.20
80495;DHT22;69819;48.798;11.770;2023-07-28T05:49:43;32.60;44.90
80495;DHT22;69819;48.798;11.770;2023-07-28T05:52:09;32.50;44.50
80495;DHT22;69819;48.798;11.770;2023-07-28T05:54:35;32.40;44.40
80495;DHT22;69819;48.798;11.770;2023-07-28T05:57:00;32.20;44.20
80495;DHT22;69819;48.798;11.770;2023-07-28T05:59:26;32.10;43.90
80495;DHT22;69819;48.798;11.770;2023-07-28T06:01:52;31.80;43.80
80495;DHT22;69819;48.798;11.770;2023-07-28T06:04:18;31.60;43.80
80495;DHT22;69819;48.798;11.770;2023-07-28T06:06:44;31.30;43.80
80495;DHT22;69819;48.798;11.770;2023-07-28T06:09:10;31.00;44.00
80495;DHT22;69819;48.798;11.770;2023-07-28T06:11:36;30.80;44.00
80495;DHT22;69819;48.798;11.770;2023-07-28T06:14:01;30.50;44.00
80495;DHT22;69819;48.798;11.770;2023-07-28T06:16:27;30.30;44.20
80495;DHT22;69819;48.798;11.770;2023-07-28T06:18:53;30.00;44.30
80495;DHT22;69819;48.798;11.770;2023-07-28T06:21:19;29.80;44.40
80495;DHT22;69819;48.798;11.770;2023-07-28T06:23:45;29.60;44.60
80495;DHT22;69819;48.798;11.770;2023-07-28T06:26:11;29.40;44.70
80495;DHT22;69819;48.798;11.770;2023-07-28T06:28:36;29.20;44.90
80495;DHT22;69819;48.798;11.770;2023-07-28T06:31:03;29.10;45.20
80495;DHT22;69819;48.798;11.770;2023-07-28T06:33:29;29.00;45.20
80495;DHT22;69819;48.798;11.770;2023-07-28T06:35:55;28.80;45.20
80495;DHT22;69819;48.798;11.770;2023-07-28T06:38:22;28.70;45.40
80495;DHT22;69819;48.798;11.770;2023-07-28T06:40:48;28.60;45.60
80495;DHT22;69819;48.798;11.770;2023-07-28T06:43:14;28.50;45.60
80495;DHT22;69819;48.798;11.770;2023-07-28T06:45:40;28.40;45.60
80495;DHT22;69819;48.798;11.770;2023-07-28T06:48:06;28.20;45.70
80495;DHT22;69819;48.798;11.770;2023-07-28T06:50:31;28.10;46.10
80495;DHT22;69819;48.798;11.770;2023-07-28T06:52:58;28.10;46.00
80495;DHT22;69819;48.798;11.770;2023-07-28T06:55:24;27.90;46.10
80495;DHT22;69819;48.798;11.770;2023-07-28T06:57:49;27.80;46.20
80495;DHT22;69819;48.798;11.770;2023-07-28T07:00:16;27.70;46.30
80495;DHT22;69819;48.798;11.770;2023-07-28T07:02:43;27.70;46.50
80495;DHT22;69819;48.798;11.770;2023-07-28T07:05:10;27.60;46.60
80495;DHT22;69819;48.798;11.770;2023-07-28T07:07:37;27.50;46.80
80495;DHT22;69819;48.798;11.770;2023-07-28T07:10:04;27.60;47.00
80495;DHT22;69819;48.798;11.770;2023-07-28T07:12:31;27.60;47.10
80495;DHT22;69819;48.798;11.770;2023-07-28T07:14:57;27.70;47.10
80495;DHT22;69819;48.798;11.770;2023-07-28T07:17:23;27.70;47.10
80495;DHT22;69819;48.798;11.770;2023-07-28T07:19:49;27.80;47.10
80495;DHT22;69819;48.798;11.770;2023-07-28T07:22:15;27.90;47.00
80495;DHT22;69819;48.798;11.770;2023-07-28T07:24:41;27.90;46.80
80495;DHT22;69819;48.798;11.770;2023-07-28T07:27:07;27.90;46.70
80495;DHT22;69819;48.798;11.770;2023-07-28T07:29:39;27.90;46.70
80495;DHT22;69819;48.798;11.770;2023-07-28T07:32:06;27.90;46.80
80495;DHT22;69819;48.798;11.770;2023-07-28T07:34:34;27.90;47.00
80495;DHT22;69819;48.798;11.770;2023-07-28T07:37:00;28.00;47.20
80495;DHT22;69819;48.798;11.770;2023-07-28T07:39:26;28.20;47.50
80495;DHT22;69819;48.798;11.770;2023-07-28T07:41:52;28.40;47.80
80495;DHT22;69819;48.798;11.770;2023-07-28T07:44:18;28.70;48.00
80495;DHT22;69819;48.798;11.770;2023-07-28T07:46:44;29.10;48.00
80495;DHT22;69819;48.798;11.770;2023-07-28T07:49:10;29.50;47.80
80495;DHT22;69819;48.798;11.770;2023-07-28T07:51:36;29.90;47.40
80495;DHT22;69819;48.798;11.770;2023-07-28T07:54:02;30.30;47.00
80495;DHT22;69819;48.798;11.770;2023-07-28T07:56:27;30.60;46.60
80495;DHT22;69819;48.798;11.770;2023-07-28T07:58:53;30.90;46.30
80495;DHT22;69819;48.798;11.770;2023-07-28T08:01:19;31.20;46.10
80495;DHT22;69819;48.798;11.770;2023-07-28T08:03:45;31.40;45.80
80495;DHT22;69819;48.798;11.770;2023-07-28T08:06:11;31.70;45.50
80495;DHT22;69819;48.798;11.770;2023-07-28T08:08:38;31.90;45.30
80495;DHT22;69819;48.798;11.770;2023-07-28T08:11:04;32.10;44.90
80495;DHT22;69819;48.798;11.770;2023-07-28T08:13:30;32.30;44.50
80495;DHT22;69819;48.798;11.770;2023-07-28T08:15:56;32.40;44.10
80495;DHT22;69819;48.798;11.770;2023-07-28T08:18:22;32.60;44.00
80495;DHT22;69819;48.798;11.770;2023-07-28T08:20:49;32.70;43.50
80495;DHT22;69819;48.798;11.770;2023-07-28T08:23:15;32.70;43.30
80495;DHT22;69819;48.798;11.770;2023-07-28T08:25:42;32.70;42.90
80495;DHT22;69819;48.798;11.770;2023-07-28T08:28:08;32.70;42.90
80495;DHT22;69819;48.798;11.770;2023-07-28T08:30:34;32.60;42.70
80495;DHT22;69819;48.798;11.770;2023-07-28T08:33:01;32.40;42.60
80495;DHT22;69819;48.798;11.770;2023-07-28T08:35:27;32.30;42.60
80495;DHT22;69819;48.798;11.770;2023-07-28T08:37:53;32.20;42.60
80495;DHT22;69819;48.798;11.770;2023-07-28T08:40:19;32.10;42.70
80495;DHT22;69819;48.798;11.770;2023-07-28T08:42:45;32.10;43.00
80495;DHT22;69819;48.798;11.770;2023-07-28T08:45:12;32.00;43.20
80495;DHT22;69819;48.798;11.770;2023-07-28T08:47:38;32.10;43.50
80495;DHT22;69819;48.798;11.770;2023-07-28T08:50:05;32.10;43.50
80495;DHT22;69819;48.798;11.770;2023-07-28T08:52:34;32.20;43.30
80495;DHT22;69819;48.798;11.770;2023-07-28T08:55:00;32.30;43.20
80495;DHT22;69819;48.798;11.770;2023-07-28T08:57:27;32.30;43.00
80495;DHT22;69819;48.798;11.770;2023-07-28T08:59:53;32.40;42.80
80495;DHT22;69819;48.798;11.770;2023-07-28T09:02:20;32.30;42.70
80495;DHT22;69819;48.798;11.770;2023-07-28T09:04:47;32.30;42.50
80495;DHT22;69819;48.798;11.770;2023-07-28T09:07:14;32.20;42.30
80495;DHT22;69819;48.798;11.770;2023-07-28T09:09:41;32.10;42.30
80495;DHT22;69819;48.798;11.770;2023-07-28T09:12:07;32.00;42.50
80495;DHT22;69819;48.798;11.770;2023-07-28T09:14:37;31.90;42.70
80495;DHT22;69819;48.798;11.770;2023-07-28T09:17:11;31.80;42.90
80495;DHT22;69819;48.798;11.770;2023-07-28T09:19:56;31.70;42.90
80495;DHT22;69819;48.798;11.770;2023-07-28T09:22:22;31.60;42.80
80495;DHT22;69819;48.798;11.770;2023-07-28T09:24:50;31.60;43.10
80495;DHT22;69819;48.798;11.770;2023-07-28T09:27:25;31.60;43.10
80495;DHT22;69819;48.798;11.770;2023-07-28T09:29:53;31.60;42.80
80495;DHT22;69819;48.798;11.770;2023-07-28T09:32:31;31.50;42.90
80495;DHT22;69819;48.798;11.770;2023-07-28T09:35:12;31.40;42.60
80495;DHT22;69819;48.798;11.770;2023-07-28T09:37:40;31.40;42.60
80495;DHT22;69819;48.798;11.770;2023-07-28T09:40:09;31.40;42.90
80495;DHT22;69819;48.798;11.770;2023-07-28T09:42:40;31.30;42.90
80495;DHT22;69819;48.798;11.770;2023-07-28T09:45:08;31.30;42.90
80495;DHT22;69819;48.798;11.770;2023-07-28T09:47:36;31.20;42.90
80495;DHT22;69819;48.798;11.770;2023-07-28T09:50:04;31.20;43.10
80495;DHT22;69819;48.798;11.770;2023-07-28T09:52:53;31.20;43.10
80495;DHT22;69819;48.798;11.770;2023-07-28T09:55:22;31.10;43.00
80495;DHT22;69819;48.798;11.770;2023-07-28T09:57:55;31.10;43.10
80495;DHT22;69819;48.798;11.770;2023-07-28T10:00:25;31.00;43.10
80495;DHT22;69819;48.798;11.770;2023-07-28T10:02:52;31.00;43.20
80495;DHT22;69819;48.798;11.770;2023-07-28T10:05:19;30.90;43.10
80495;DHT22;69819;48.798;11.770;2023-07-28T10:07:47;30.90;43.10
80495;DHT22;69819;48.798;11.770;2023-07-28T10:10:14;30.90;43.20
80495;DHT22;69819;48.798;11.770;2023-07-28T10:12:53;30.90;43.40
80495;DHT22;69819;48.798;11.770;2023-07-28T10:15:26;31.00;43.20
80495;DHT22;69819;48.798;11.770;2023-07-28T10:17:55;31.00;43.50
80495;DHT22;69819;48.798;11.770;2023-07-28T10:20:36;31.10;43.30
80495;DHT22;69819;48.798;11.770;2023-07-28T10:23:09;31.20;43.20
80495;DHT22;69819;48.798;11.770;2023-07-28T10:25:39;31.10;43.10
80495;DHT22;69819;48.798;11.770;2023-07-28T10:28:07;31.10;43.10
80495;DHT22;69819;48.798;11.770;2023-07-28T10:31:03;31.00;43.00
80495;DHT22;69819;48.798;11.770;2023-07-28T10:33:38;31.00;43.10
80495;DHT22;69819;48.798;11.770;2023-07-28T10:39:15;30.70;43.60
80495;DHT22;69819;48.798;11.770;2023-07-28T10:42:21;30.60;43.10
80495;DHT22;69819;48.798;11.770;2023-07-28T10:44:49;30.50;43.30
80495;DHT22;69819;48.798;11.770;2023-07-28T10:47:16;30.40;43.60
80495;DHT22;69819;48.798;11.770;2023-07-28T10:49:42;30.30;43.70
80495;DHT22;69819;48.798;11.770;2023-07-28T10:52:08;30.30;43.90
80495;DHT22;69819;48.798;11.770;2023-07-28T10:54:34;30.40;44.20
80495;DHT22;69819;48.798;11.770;2023-07-28T10:57:03;30.60;44.50
80495;DHT22;69819;48.798;11.770;2023-07-28T10:59:30;30.80;44.40
80495;DHT22;69819;48.798;11.770;2023-07-28T11:01:56;31.00;44.20
80495;DHT22;69819;48.798;11.770;2023-07-28T11:04:22;31.20;44.30
80495;DHT22;69819;48.798;11.770;2023-07-28T11:06:50;31.40;44.20
80495;DHT22;69819;48.798;11.770;2023-07-28T11:09:18;31.60;44.00
80495;DHT22;69819;48.798;11.770;2023-07-28T11:11:47;31.80;43.60
80495;DHT22;69819;48.798;11.770;2023-07-28T11:14:16;32.00;43.30
80495;DHT22;69819;48.798;11.770;2023-07-28T11:16:43;32.20;43.00
80495;DHT22;69819;48.798;11.770;2023-07-28T11:19:13;32.20;42.70
80495;DHT22;69819;48.798;11.770;2023-07-28T11:21:40;32.30;42.60
80495;DHT22;69819;48.798;11.770;2023-07-28T11:24:08;32.30;42.30
80495;DHT22;69819;48.798;11.770;2023-07-28T11:26:38;32.40;42.20
80495;DHT22;69819;48.798;11.770;2023-07-28T11:29:05;32.40;42.00
80495;DHT22;69819;48.798;11.770;2023-07-28T11:31:32;32.40;41.90
80495;DHT22;69819;48.798;11.770;2023-07-28T11:33:59;32.40;41.70
80495;DHT22;69819;48.798;11.770;2023-07-28T11:36:26;32.50;41.70
80495;DHT22;69819;48.798;11.770;2023-07-28T11:38:55;32.50;41.50
80495;DHT22;69819;48.798;11.770;2023-07-28T11:41:24;32.50;41.40
80495;DHT22;69819;48.798;11.770;2023-07-28T11:43:52;32.50;41.30
80495;DHT22;69819;48.798;11.770;2023-07-28T11:46:38;32.60;41.30
80495;DHT22;69819;48.798;11.770;2023-07-28T11:49:14;32.60;40.80
80495;DHT22;69819;48.798;11.770;2023-07-28T11:51:51;32.60;40.70
80495;DHT22;69819;48.798;11.770;2023-07-28T11:54:21;32.60;41.10
80495;DHT22;69819;48.798;11.770;2023-07-28T11:56:54;32.60;41.00
80495;DHT22;69819;48.798;11.770;2023-07-28T11:59:22;32.50;40.70
80495;DHT22;69819;48.798;11.770;2023-07-28T12:01:55;32.50;41.00
80495;DHT22;69819;48.798;11.770;2023-07-28T12:04:27;32.50;41.10
80495;DHT22;69819;48.798;11.770;2023-07-28T12:07:03;32.50;41.20
80495;DHT22;69819;48.798;11.770;2023-07-28T12:12:22;32.60;41.10
80495;DHT22;69819;48.798;11.770;2023-07-28T12:14:49;32.60;40.90
80495;DHT22;69819;48.798;11.770;2023-07-28T12:17:20;32.60;40.80
80495;DHT22;69819;48.798;11.770;2023-07-28T12:20:07;32.50;40.70
80495;DHT22;69819;48.798;11.770;2023-07-28T12:22:39;32.40;40.50
80495;DHT22;69819;48.798;11.770;2023-07-28T12:25:06;32.40;40.90
80495;DHT22;69819;48.798;11.770;2023-07-28T12:27:33;32.30;40.90
80495;DHT22;69819;48.798;11.770;2023-07-28T12:30:00;32.20;41.00
80495;DHT22;69819;48.798;11.770;2023-07-28T12:32:27;32.10;40.90
80495;DHT22;69819;48.798;11.770;2023-07-28T12:34:52;32.10;41.10
80495;DHT22;69819;48.798;11.770;2023-07-28T12:37:19;32.10;41.00
80495;DHT22;69819;48.798;11.770;2023-07-28T12:39:46;32.10;41.10
80495;DHT22;69819;48.798;11.770;2023-07-28T12:42:14;32.00;40.90
80495;DHT22;69819;48.798;11.770;2023-07-28T12:44:41;32.00;40.90
80495;DHT22;69819;48.798;11.770;2023-07-28T12:47:07;32.00;40.90
80495;DHT22;69819;48.798;11.770;2023-07-28T12:49:33;32.10;41.00
80495;DHT22;69819;48.798;11.770;2023-07-28T12:52:04;32.10;41.20
80495;DHT22;69819;48.798;11.770;2023-07-28T12:54:34;32.10;41.20
80495;DHT22;69819;48.798;11.770;2023-07-28T12:57:00;32.20;41.30
80495;DHT22;69819;48.798;11.770;2023-07-28T12:59:27;32.20;41.20
80495;DHT22;69819;48.798;11.770;2023-07-28T13:01:55;32.20;41.00
80495;DHT22;69819;48.798;11.770;2023-07-28T13:04:21;32.30;41.00
80495;DHT22;69819;48.798;11.770;2023-07-28T13:06:47;32.30;40.80
80495;DHT22;69819;48.798;11.770;2023-07-28T13:09:13;32.30;40.90
80495;DHT22;69819;48.798;11.770;2023-07-28T13:11:39;32.30;40.90
80495;DHT22;69819;48.798;11.770;2023-07-28T13:14:04;32.30;40.80
80495;DHT22;69819;48.798;11.770;2023-07-28T13:16:30;32.40;40.80
80495;DHT22;69819;48.798;11.770;2023-07-28T13:18:57;32.40;40.70
80495;DHT22;69819;48.798;11.770;2023-07-28T13:21:23;32.40;40.50
80495;DHT22;69819;48.798;11.770;2023-07-28T13:23:52;32.50;40.50
80495;DHT22;69819;48.798;11.770;2023-07-28T13:26:17;32.50;40.30
80495;DHT22;69819;48.798;11.770;2023-07-28T13:28:43;32.40;40.20
80495;DHT22;69819;48.798;11.770;2023-07-28T13:31:13;32.40;39.90
80495;DHT22;69819;48.798;11.770;2023-07-28T13:33:40;32.40;39.70
80495;DHT22;69819;48.798;11.770;2023-07-28T13:36:06;32.30;39.60
80495;DHT22;69819;48.798;11.770;2023-07-28T13:38:35;32.20;39.40
80495;DHT22;69819;48.798;11.770;2023-07-28T13:41:04;32.20;39.50
80495;DHT22;69819;48.798;11.770;2023-07-28T13:43:34;32.20;39.70
80495;DHT22;69819;48.798;11.770;2023-07-28T13:46:03;32.20;39.70
80495;DHT22;69819;48.798;11.770;2023-07-28T13:48:33;32.10;39.60
80495;DHT22;69819;48.798;11.770;2023-07-28T13:51:01;32.20;39.60
80495;DHT22;69819;48.798;11.770;2023-07-28T13:53:28;32.20;39.70
80495;DHT22;69819;48.798;11.770;2023-07-28T13:55:55;32.30;39.70
80495;DHT22;69819;48.798;11.770;2023-07-28T13:58:21;32.40;39.60
80495;DHT22;69819;48.798;11.770;2023-07-28T14:00:47;32.40;39.60
80495;DHT22;69819;48.798;11.770;2023-07-28T14:03:13;32.50;39.60
80495;DHT22;69819;48.798;11.770;2023-07-28T14:05:39;32.60;39.60
80495;DHT22;69819;48.798;11.770;2023-07-28T14:08:05;32.70;39.50
80495;DHT22;69819;48.798;11.770;2023-07-28T14:10:31;32.80;39.40
80495;DHT22;69819;48.798;11.770;2023-07-28T14:13:01;32.90;39.20
80495;DHT22;69819;48.798;11.770;2023-07-28T14:15:28;32.90;39.00
80495;DHT22;69819;48.798;11.770;2023-07-28T14:17:57;33.00;39.00
80495;DHT22;69819;48.798;11.770;2023-07-28T14:20:22;33.00;39.00
80495;DHT22;69819;48.798;11.770;2023-07-28T14:22:48;33.00;38.70
80495;DHT22;69819;48.798;11.770;2023-07-28T14:25:14;33.10;38.70
80495;DHT22;69819;48.798;11.770;2023-07-28T14:27:40;33.10;38.60
80495;DHT22;69819;48.798;11.770;2023-07-28T14:30:08;33.10;38.60
80495;DHT22;69819;48.798;11.770;2023-07-28T14:32:34;33.10;38.60
80495;DHT22;69819;48.798;11.770;2023-07-28T14:35:00;33.10;38.50
80495;DHT22;69819;48.798;11.770;2023-07-28T14:37:26;33.10;38.40
80495;DHT22;69819;48.798;11.770;2023-07-28T14:39:52;33.10;38.40
80495;DHT22;69819;48.798;11.770;2023-07-28T14:42:18;33.10;38.30
80495;DHT22;69819;48.798;11.770;2023-07-28T14:44:45;33.10;38.20
80495;DHT22;69819;48.798;11.770;2023-07-28T14:47:11;33.10;38.20
80495;DHT22;69819;48.798;11.770;2023-07-28T14:49:36;33.10;38.10
80495;DHT22;69819;48.798;11.770;2023-07-28T14:52:02;33.00;38.00
80495;DHT22;69819;48.798;11.770;2023-07-28T14:54:28;32.90;38.10
80495;DHT22;69819;48.798;11.770;2023-07-28T14:56:54;32.90;38.20
80495;DHT22;69819;48.798;11.770;2023-07-28T14:59:20;32.80;38.30
80495;DHT22;69819;48.798;11.770;2023-07-28T15:01:46;32.80;38.30
80495;DHT22;69819;48.798;11.770;2023-07-28T15:04:12;32.70;38.40
80495;DHT22;69819;48.798;11.770;2023-07-28T15:06:39;32.70;38.40
80495;DHT22;69819;48.798;11.770;2023-07-28T15:09:06;32.70;38.40
80495;DHT22;69819;48.798;11.770;2023-07-28T15:11:32;32.60;38.30
80495;DHT22;69819;48.798;11.770;2023-07-28T15:13:58;32.60;38.40
80495;DHT22;69819;48.798;11.770;2023-07-28T15:16:24;32.50;38.40
80495;DHT22;69819;48.798;11.770;2023-07-28T15:18:50;32.50;38.60
80495;DHT22;69819;48.798;11.770;2023-07-28T15:21:16;32.40;38.60